createdAt,value
2019-02-19T00:00:28.922Z,5.60
2019-02-19T00:02:57.508Z,5.50
2019-02-19T00:05:25.920Z,5.50
2019-02-19T00:07:54.209Z,5.50
2019-02-19T00:10:22.444Z,5.50
2019-02-19T00:12:51.017Z,5.50
2019-02-19T00:15:19.269Z,5.50
2019-02-19T00:17:47.538Z,5.40
2019-02-19T00:20:15.783Z,5.40
2019-02-19T00:22:44.057Z,5.40
2019-02-19T00:25:12.603Z,5.40
2019-02-19T00:27:41.022Z,5.30
2019-02-19T00:30:09.271Z,5.30
2019-02-19T00:32:37.541Z,5.30
2019-02-19T00:35:06.632Z,5.30
2019-02-19T00:37:35.213Z,5.30
2019-02-19T00:40:03.444Z,5.20
2019-02-19T00:42:31.749Z,5.30
2019-02-19T00:45:00.372Z,5.20
2019-02-19T00:47:29.038Z,5.20
2019-02-19T00:49:57.277Z,5.20
2019-02-19T00:52:25.888Z,5.10
2019-02-19T00:54:54.140Z,5.10
2019-02-19T00:57:22.417Z,5.10
2019-02-19T00:59:50.689Z,5.10
2019-02-19T01:02:19.310Z,5.00
2019-02-19T01:04:47.876Z,5.00
2019-02-19T01:07:16.144Z,5.00
2019-02-19T01:09:44.405Z,5.00
2019-02-19T01:12:13.025Z,4.90
2019-02-19T01:14:41.532Z,5.00
2019-02-19T01:17:10.096Z,4.90
2019-02-19T01:19:38.669Z,4.90
2019-02-19T01:22:06.958Z,4.90
2019-02-19T01:24:35.533Z,4.90
2019-02-19T01:27:03.770Z,4.80
2019-02-19T01:29:32.051Z,4.80
2019-02-19T01:32:00.306Z,4.80
2019-02-19T01:34:28.578Z,4.80
2019-02-19T01:36:56.899Z,4.80
2019-02-19T01:39:25.495Z,4.80
2019-02-19T01:41:53.750Z,4.80
2019-02-19T01:44:22.032Z,4.70
2019-02-19T01:46:50.624Z,4.70
2019-02-19T01:49:18.889Z,4.70
2019-02-19T01:51:47.128Z,4.70
2019-02-19T01:54:15.426Z,4.70
2019-02-19T01:56:44.055Z,4.60
2019-02-19T01:59:12.325Z,4.60
2019-02-19T02:01:40.901Z,4.60
2019-02-19T02:04:09.177Z,4.60
2019-02-19T02:06:37.434Z,4.60
2019-02-19T02:09:05.773Z,4.60
2019-02-19T02:11:34.097Z,4.50
2019-02-19T02:14:02.385Z,4.50
2019-02-19T02:16:30.635Z,4.50
2019-02-19T02:18:58.988Z,4.50
2019-02-19T02:21:27.301Z,4.50
2019-02-19T02:23:55.578Z,4.40
2019-02-19T02:26:23.871Z,4.50
2019-02-19T02:28:52.132Z,4.40
2019-02-19T02:31:20.390Z,4.40
2019-02-19T02:33:49.000Z,4.40
2019-02-19T02:36:17.244Z,4.30
2019-02-19T02:38:45.606Z,4.30
2019-02-19T02:41:13.857Z,4.30
2019-02-19T02:43:42.145Z,4.30
2019-02-19T02:46:10.391Z,4.30
2019-02-19T02:48:38.960Z,4.30
2019-02-19T02:51:07.209Z,4.20
2019-02-19T02:53:35.478Z,4.20
2019-02-19T02:56:03.737Z,4.20
2019-02-19T02:58:32.030Z,4.20
2019-02-19T03:01:00.281Z,4.20
2019-02-19T03:03:28.603Z,4.20
2019-02-19T03:06:01.192Z,4.10
2019-02-19T03:08:29.438Z,4.10
2019-02-19T03:10:57.733Z,4.10
2019-02-19T03:13:26.056Z,4.10
2019-02-19T03:16:02.100Z,4.10
2019-02-19T03:18:24.610Z,4.10
2019-02-19T03:20:53.206Z,4.10
2019-02-19T03:23:21.457Z,4.00
2019-02-19T03:25:49.712Z,4.10
2019-02-19T03:28:17.990Z,4.10
2019-02-19T03:30:47.666Z,4.10
2019-02-19T03:33:15.946Z,4.00
2019-02-19T03:35:44.505Z,4.10
2019-02-19T03:38:12.786Z,4.10
2019-02-19T03:40:41.042Z,4.00
2019-02-19T03:43:09.327Z,4.00
2019-02-19T03:45:37.652Z,4.00
2019-02-19T03:48:05.923Z,4.00
2019-02-19T03:50:34.166Z,4.00
2019-02-19T03:53:02.780Z,3.90
2019-02-19T03:55:31.336Z,4.00
2019-02-19T03:57:59.593Z,3.90
2019-02-19T04:00:28.189Z,3.90
2019-02-19T04:02:56.789Z,4.00
2019-02-19T04:05:25.064Z,4.00
2019-02-19T04:07:53.314Z,4.00
2019-02-19T04:10:21.591Z,3.90
2019-02-19T04:12:49.866Z,3.90
2019-02-19T04:15:18.135Z,3.90
2019-02-19T04:17:46.745Z,3.90
2019-02-19T04:20:15.004Z,3.90
2019-02-19T04:22:43.245Z,3.90
2019-02-19T04:25:11.783Z,3.90
2019-02-19T04:27:40.051Z,3.80
2019-02-19T04:30:09.248Z,3.80
2019-02-19T04:32:37.507Z,3.80
2019-02-19T04:35:06.057Z,3.80
2019-02-19T04:37:34.599Z,3.80
2019-02-19T04:40:03.161Z,3.80
2019-02-19T04:42:31.419Z,3.80
2019-02-19T04:44:59.742Z,3.80
2019-02-19T04:47:28.005Z,3.90
2019-02-19T04:49:56.288Z,3.90
2019-02-19T04:52:24.876Z,3.80
2019-02-19T04:54:53.224Z,3.90
2019-02-19T04:57:21.471Z,3.90
2019-02-19T04:59:49.779Z,3.90
2019-02-19T05:02:18.037Z,3.90
2019-02-19T05:04:46.307Z,3.90
2019-02-19T05:07:14.544Z,3.90
2019-02-19T05:09:43.096Z,3.90
2019-02-19T05:12:11.354Z,3.90
2019-02-19T05:14:39.957Z,3.90
2019-02-19T05:17:08.222Z,3.90
2019-02-19T05:19:37.255Z,3.90
2019-02-19T05:22:05.831Z,3.90
2019-02-19T05:24:34.404Z,4.00
2019-02-19T05:27:02.977Z,4.00
2019-02-19T05:29:31.504Z,4.00
2019-02-19T05:32:00.100Z,4.10
2019-02-19T05:34:28.464Z,4.10
2019-02-19T05:36:57.102Z,4.10
2019-02-19T05:39:25.383Z,4.10
2019-02-19T05:41:53.631Z,4.20
2019-02-19T05:44:21.880Z,4.20
2019-02-19T05:46:50.522Z,4.20
2019-02-19T05:49:18.852Z,4.20
2019-02-19T05:51:47.131Z,4.30
2019-02-19T05:54:15.360Z,4.30
2019-02-19T05:56:43.660Z,4.30
2019-02-19T05:59:11.916Z,4.30
2019-02-19T06:01:40.472Z,4.30
2019-02-19T06:04:09.054Z,4.40
2019-02-19T06:06:37.586Z,4.40
2019-02-19T06:09:05.839Z,4.30
2019-02-19T06:11:34.100Z,4.40
2019-02-19T06:14:02.363Z,4.40
2019-02-19T06:16:31.081Z,4.40
2019-02-19T06:18:59.566Z,4.40
2019-02-19T06:21:27.854Z,4.40
2019-02-19T06:23:56.093Z,4.50
2019-02-19T06:26:24.646Z,4.50
2019-02-19T06:28:52.889Z,4.50
2019-02-19T06:31:21.159Z,4.50
2019-02-19T06:33:49.955Z,4.50
2019-02-19T06:36:18.371Z,4.60
2019-02-19T06:38:46.819Z,4.50
2019-02-19T06:41:15.476Z,4.50
2019-02-19T06:43:43.802Z,4.50
2019-02-19T06:46:12.419Z,4.60
2019-02-19T06:48:40.669Z,4.50
2019-02-19T06:51:09.282Z,4.60
2019-02-19T06:53:37.546Z,4.60
2019-02-19T06:56:05.818Z,4.60
2019-02-19T06:58:34.416Z,4.60
2019-02-19T07:01:02.994Z,4.60
2019-02-19T07:03:38.676Z,4.70
2019-02-19T07:06:07.218Z,4.70
2019-02-19T07:08:35.733Z,4.70
2019-02-19T07:11:04.023Z,4.70
2019-02-19T07:13:32.609Z,4.70
2019-02-19T07:16:00.952Z,4.70
2019-02-19T07:18:29.330Z,4.70
2019-02-19T07:20:57.594Z,4.70
2019-02-19T07:23:25.867Z,4.80
2019-02-19T07:25:54.134Z,4.80
2019-02-19T07:28:22.383Z,4.90
2019-02-19T07:30:50.694Z,4.90
2019-02-19T07:33:18.962Z,4.90
2019-02-19T07:35:47.284Z,4.90
2019-02-19T07:38:15.584Z,4.90
2019-02-19T07:40:43.833Z,4.90
2019-02-19T07:43:12.101Z,4.90
2019-02-19T07:45:40.342Z,4.90
2019-02-19T07:48:08.634Z,5.00
2019-02-19T07:50:37.221Z,5.00
2019-02-19T07:53:05.841Z,5.00
2019-02-19T07:55:34.237Z,5.10
2019-02-19T07:58:02.800Z,5.10
2019-02-19T08:00:31.202Z,5.10
2019-02-19T08:02:59.746Z,5.20
2019-02-19T08:05:28.265Z,5.20
2019-02-19T08:07:56.536Z,5.20
2019-02-19T08:10:24.921Z,5.30
2019-02-19T08:12:53.186Z,5.30
2019-02-19T08:15:21.683Z,5.30
2019-02-19T08:17:49.957Z,5.30
2019-02-19T08:20:18.283Z,5.30
2019-02-19T08:22:46.601Z,5.20
2019-02-19T08:25:14.894Z,5.20
2019-02-19T08:27:43.422Z,5.20
2019-02-19T08:30:11.978Z,5.20
2019-02-19T08:32:40.294Z,5.30
2019-02-19T08:35:08.785Z,5.30
2019-02-19T08:37:38.717Z,5.40
2019-02-19T08:40:09.016Z,5.40
2019-02-19T08:42:37.309Z,5.20
2019-02-19T08:45:07.502Z,5.30
2019-02-19T08:47:42.326Z,5.30
2019-02-19T08:50:07.621Z,5.40
2019-02-19T08:52:35.956Z,5.40
2019-02-19T08:55:04.668Z,5.40
2019-02-19T08:57:32.935Z,5.60
2019-02-19T09:00:01.182Z,5.50
2019-02-19T09:02:29.571Z,5.50
2019-02-19T09:04:57.850Z,5.50
2019-02-19T09:07:26.191Z,5.50
2019-02-19T09:09:54.729Z,5.40
2019-02-19T09:12:23.000Z,5.50
2019-02-19T09:14:51.257Z,5.50
2019-02-19T09:17:19.539Z,5.60
2019-02-19T09:19:48.166Z,5.60
2019-02-19T09:22:16.755Z,5.60
2019-02-19T09:24:45.006Z,5.70
2019-02-19T09:27:13.271Z,5.70
2019-02-19T09:29:41.893Z,5.70
2019-02-19T09:32:10.154Z,5.80
2019-02-19T09:34:38.435Z,5.80
2019-02-19T09:37:07.021Z,5.80
2019-02-19T09:39:35.296Z,5.80
2019-02-19T09:42:03.529Z,5.80
2019-02-19T09:44:31.807Z,5.80
2019-02-19T09:47:00.074Z,5.70
2019-02-19T09:49:28.356Z,5.80
2019-02-19T09:51:56.609Z,5.80
2019-02-19T09:54:24.951Z,5.70
2019-02-19T09:56:53.196Z,5.70
2019-02-19T09:59:21.462Z,5.70
2019-02-19T10:01:49.978Z,5.80
2019-02-19T10:04:18.269Z,5.80
2019-02-19T10:06:46.522Z,5.80
2019-02-19T10:09:14.804Z,5.60
2019-02-19T10:11:43.398Z,5.60
2019-02-19T10:14:11.944Z,5.60
2019-02-19T10:16:41.891Z,5.80
2019-02-19T10:19:10.809Z,5.90
2019-02-19T10:21:39.058Z,6.00
2019-02-19T10:24:07.651Z,6.20
2019-02-19T10:26:35.894Z,6.20
2019-02-19T10:29:04.163Z,6.30
2019-02-19T10:31:32.404Z,6.40
2019-02-19T10:34:00.682Z,6.50
2019-02-19T10:36:28.944Z,6.60
2019-02-19T10:38:57.462Z,6.60
2019-02-19T10:41:25.818Z,6.70
2019-02-19T10:43:54.093Z,6.80
2019-02-19T10:46:22.354Z,6.90
2019-02-19T10:48:51.963Z,6.90
2019-02-19T10:51:20.466Z,7.00
2019-02-19T10:53:49.134Z,7.10
2019-02-19T10:56:17.810Z,7.20
2019-02-19T10:58:46.587Z,7.30
2019-02-19T11:01:14.837Z,7.40
2019-02-19T11:03:43.100Z,7.50
2019-02-19T11:06:11.374Z,7.50
2019-02-19T11:08:39.727Z,7.60
2019-02-19T11:11:07.973Z,7.60
2019-02-19T11:13:36.258Z,7.60
2019-02-19T11:16:04.850Z,7.60
2019-02-19T11:18:33.280Z,7.60
2019-02-19T11:21:01.525Z,7.70
2019-02-19T11:23:29.809Z,7.90
2019-02-19T11:25:58.058Z,8.10
2019-02-19T11:28:26.310Z,8.20
2019-02-19T11:30:54.886Z,8.40
2019-02-19T11:33:23.135Z,8.50
2019-02-19T11:35:51.685Z,8.50
2019-02-19T11:38:19.941Z,8.50
2019-02-19T11:40:48.497Z,8.60
2019-02-19T11:43:17.080Z,8.80
2019-02-19T11:45:45.345Z,8.80
2019-02-19T11:48:13.588Z,8.90
2019-02-19T11:50:41.861Z,9.00
2019-02-19T11:53:10.406Z,9.10
2019-02-19T11:55:38.680Z,9.30
2019-02-19T11:58:06.931Z,9.50
2019-02-19T12:00:40.033Z,9.60
2019-02-19T12:03:08.284Z,9.70
2019-02-19T12:05:36.895Z,9.80
2019-02-19T12:08:05.145Z,9.90
2019-02-19T12:10:33.983Z,9.90
2019-02-19T12:13:02.240Z,10.00
2019-02-19T12:15:35.202Z,10.10
2019-02-19T12:18:00.471Z,10.20
2019-02-19T12:20:28.734Z,10.20
2019-02-19T12:22:56.981Z,10.30
2019-02-19T12:25:25.245Z,10.30
2019-02-19T12:27:53.508Z,10.40
2019-02-19T12:30:21.791Z,10.40
2019-02-19T12:32:50.120Z,10.50
2019-02-19T12:35:18.769Z,10.40
2019-02-19T12:37:47.353Z,10.50
2019-02-19T12:40:15.945Z,10.40
2019-02-19T12:42:44.523Z,10.50
2019-02-19T12:45:14.377Z,10.50
2019-02-19T12:47:42.696Z,10.40
2019-02-19T12:50:13.670Z,10.50
2019-02-19T12:52:41.938Z,10.60
2019-02-19T12:55:10.761Z,10.60
2019-02-19T12:57:39.009Z,10.60
2019-02-19T13:00:12.556Z,10.60
2019-02-19T13:02:40.809Z,10.60
2019-02-19T13:05:10.626Z,10.60
2019-02-19T13:07:38.877Z,10.60
2019-02-19T13:10:09.928Z,10.70
2019-02-19T13:12:38.252Z,10.70
2019-02-19T13:15:12.564Z,10.70
2019-02-19T13:17:40.807Z,10.70
2019-02-19T13:20:15.185Z,10.70
2019-02-19T13:22:43.432Z,10.70
2019-02-19T13:25:12.157Z,10.70
2019-02-19T13:27:40.732Z,10.70
2019-02-19T13:30:15.094Z,10.70
2019-02-19T13:32:43.623Z,10.70
2019-02-19T13:35:13.045Z,10.80
2019-02-19T13:37:41.620Z,10.90
2019-02-19T13:40:15.024Z,11.00
2019-02-19T13:42:43.685Z,11.10
2019-02-19T13:45:14.319Z,11.20
2019-02-19T13:47:42.907Z,11.30
2019-02-19T13:50:14.437Z,11.30
2019-02-19T13:52:44.579Z,11.40
2019-02-19T13:55:14.806Z,11.40
2019-02-19T13:57:43.055Z,11.50
2019-02-19T14:00:12.973Z,11.60
2019-02-19T14:02:41.227Z,11.60
2019-02-19T14:05:09.460Z,11.60
2019-02-19T14:07:38.029Z,11.60
2019-02-19T14:10:09.783Z,11.60
2019-02-19T14:12:38.155Z,11.70
2019-02-19T14:15:10.686Z,11.70
2019-02-19T14:17:38.978Z,11.80
2019-02-19T14:20:09.849Z,11.80
2019-02-19T14:22:39.795Z,11.90
2019-02-19T14:25:10.313Z,12.10
2019-02-19T14:27:40.550Z,12.20
2019-02-19T14:30:28.848Z,12.30
2019-02-19T14:33:15.183Z,12.40
2019-02-19T14:35:54.139Z,12.50
2019-02-19T14:38:36.235Z,12.40
2019-02-19T14:41:22.417Z,12.30
2019-02-19T14:43:55.057Z,12.60
2019-02-19T14:46:43.839Z,12.60
2019-02-19T14:49:37.105Z,12.70
2019-02-19T14:52:07.813Z,12.50
2019-02-19T14:54:43.735Z,12.50
2019-02-19T14:57:26.281Z,12.40
2019-02-19T14:59:56.182Z,12.40
2019-02-19T15:02:28.828Z,12.30
2019-02-19T15:05:15.281Z,12.10
2019-02-19T15:07:45.397Z,12.10
2019-02-19T15:10:21.163Z,12.10
2019-02-19T15:13:07.755Z,11.90
2019-02-19T15:15:37.645Z,11.90
2019-02-19T15:18:23.943Z,11.90
2019-02-19T15:21:12.578Z,11.80
2019-02-19T15:23:42.555Z,11.80
2019-02-19T15:26:12.482Z,11.80
2019-02-19T15:28:58.897Z,11.80
2019-02-19T15:31:37.709Z,11.70
2019-02-19T15:34:16.603Z,11.70
2019-02-19T15:37:01.484Z,11.70
2019-02-19T15:39:37.242Z,11.70
2019-02-19T15:42:19.742Z,11.70
2019-02-19T15:44:49.612Z,11.70
2019-02-19T15:47:35.728Z,11.70
2019-02-19T15:50:18.987Z,11.60
2019-02-19T15:52:48.915Z,11.60
2019-02-19T15:55:33.891Z,11.60
2019-02-19T15:58:04.865Z,11.50
2019-02-19T16:00:34.990Z,11.50
2019-02-19T16:03:07.879Z,11.50
2019-02-19T16:05:37.830Z,11.40
2019-02-19T16:08:22.561Z,11.40
2019-02-19T16:11:04.655Z,11.40
2019-02-19T16:13:43.470Z,11.30
2019-02-19T16:16:25.433Z,11.30
2019-02-19T16:19:01.247Z,11.30
2019-02-19T16:21:34.013Z,11.30
2019-02-19T16:24:16.260Z,11.30
2019-02-19T16:26:58.223Z,11.20
2019-02-19T16:29:28.442Z,11.10
2019-02-19T16:31:58.685Z,11.10
2019-02-19T16:34:43.593Z,11.10
2019-02-19T16:37:16.622Z,11.00
2019-02-19T16:39:46.549Z,11.00
2019-02-19T16:42:19.133Z,10.90
2019-02-19T16:44:49.021Z,10.90
2019-02-19T16:47:18.934Z,10.80
2019-02-19T16:50:07.875Z,10.80
2019-02-19T16:52:49.395Z,10.70
2019-02-19T16:55:22.669Z,10.70
2019-02-19T16:57:52.899Z,10.70
2019-02-19T17:00:25.699Z,10.60
2019-02-19T17:03:01.873Z,10.50
2019-02-19T17:05:42.419Z,10.50
2019-02-19T17:08:28.829Z,10.40
2019-02-19T17:11:03.025Z,10.30
2019-02-19T17:13:33.015Z,10.30
2019-02-19T17:16:06.532Z,10.30
2019-02-19T17:18:52.940Z,10.20
2019-02-19T17:21:41.151Z,10.20
2019-02-19T17:24:11.106Z,10.10
2019-02-19T17:26:47.042Z,10.00
2019-02-19T17:29:17.274Z,10.00
2019-02-19T17:31:56.394Z,9.90
2019-02-19T17:34:29.105Z,9.80
2019-02-19T17:37:01.814Z,9.80
2019-02-19T17:39:34.717Z,9.70
2019-02-19T17:42:13.842Z,9.70
2019-02-19T17:44:49.814Z,9.70
2019-02-19T17:47:19.777Z,9.60
2019-02-19T17:49:49.772Z,9.60
2019-02-19T17:52:25.839Z,9.50
2019-02-19T17:55:07.664Z,9.40
2019-02-19T17:57:43.951Z,9.40
2019-02-19T18:00:16.851Z,9.40
2019-02-19T18:02:46.803Z,9.30
2019-02-19T18:05:32.257Z,9.20
2019-02-19T18:08:14.247Z,9.10
2019-02-19T18:10:49.936Z,9.10
2019-02-19T18:13:29.354Z,9.00
2019-02-19T18:15:59.580Z,9.00
2019-02-19T18:18:32.686Z,8.90
2019-02-19T18:21:01.018Z,8.90
2019-02-19T18:23:29.390Z,8.90
2019-02-19T18:25:57.696Z,8.80
2019-02-19T18:28:26.052Z,8.80
2019-02-19T18:30:54.686Z,8.80
2019-02-19T18:33:23.021Z,8.70
2019-02-19T18:35:51.283Z,8.60
2019-02-19T18:38:19.880Z,8.60
2019-02-19T18:40:48.120Z,8.50
2019-02-19T18:43:16.375Z,8.50
2019-02-19T18:45:44.665Z,8.50
2019-02-19T18:48:13.218Z,8.50
2019-02-19T18:50:41.519Z,8.50
2019-02-19T18:53:10.099Z,8.40
2019-02-19T18:55:38.744Z,8.30
2019-02-19T18:58:07.318Z,8.20
2019-02-19T19:00:35.918Z,8.20
2019-02-19T19:03:04.481Z,8.20
2019-02-19T19:05:33.069Z,8.10
2019-02-19T19:08:01.763Z,8.00
2019-02-19T19:10:30.339Z,8.00
2019-02-19T19:12:58.599Z,8.00
2019-02-19T19:15:26.946Z,8.00
2019-02-19T19:17:55.325Z,8.00
2019-02-19T19:20:23.648Z,8.00
2019-02-19T19:22:51.873Z,8.00
2019-02-19T19:25:20.180Z,7.90
2019-02-19T19:27:48.492Z,7.90
2019-02-19T19:30:17.039Z,7.90
2019-02-19T19:32:45.276Z,7.80
2019-02-19T19:35:13.566Z,7.80
2019-02-19T19:37:42.094Z,7.80
2019-02-19T19:40:12.433Z,7.70
2019-02-19T19:42:40.743Z,7.70
2019-02-19T19:45:10.791Z,7.60
2019-02-19T19:47:39.045Z,7.60
2019-02-19T19:50:09.931Z,7.60
2019-02-19T19:52:38.198Z,7.60
2019-02-19T19:55:08.744Z,7.60
2019-02-19T19:57:36.986Z,7.50
2019-02-19T20:00:12.815Z,7.40
2019-02-19T20:02:41.075Z,7.40
2019-02-19T20:05:10.378Z,7.50
2019-02-19T20:07:38.643Z,7.50
2019-02-19T20:10:09.649Z,7.40
2019-02-19T20:12:38.041Z,7.30
2019-02-19T20:15:09.537Z,7.30
2019-02-19T20:17:37.778Z,7.30
2019-02-19T20:20:09.346Z,7.30
2019-02-19T20:22:37.660Z,7.20
2019-02-19T20:25:11.934Z,7.20
2019-02-19T20:27:40.186Z,7.20
2019-02-19T20:30:11.731Z,7.20
2019-02-19T20:32:39.966Z,7.20
2019-02-19T20:35:10.123Z,7.10
2019-02-19T20:37:38.724Z,7.10
2019-02-19T20:40:09.869Z,7.10
2019-02-19T20:42:38.128Z,7.10
2019-02-19T20:45:09.263Z,7.10
2019-02-19T20:47:37.575Z,7.10
2019-02-19T20:50:08.753Z,7.00
2019-02-19T20:52:37.064Z,7.00
2019-02-19T20:55:08.023Z,6.90
2019-02-19T20:57:36.619Z,6.90
2019-02-19T21:00:11.618Z,6.80
2019-02-19T21:02:39.921Z,6.80
2019-02-19T21:05:09.819Z,6.80
2019-02-19T21:07:38.399Z,6.80
2019-02-19T21:10:20.477Z,6.80
2019-02-19T21:12:49.067Z,6.80
2019-02-19T21:15:17.388Z,6.80
2019-02-19T21:17:45.695Z,6.80
2019-02-19T21:20:14.189Z,6.80
2019-02-19T21:22:42.803Z,6.80
2019-02-19T21:25:11.475Z,6.70
2019-02-19T21:27:39.964Z,6.70
2019-02-19T21:30:15.749Z,6.60
2019-02-19T21:32:44.414Z,6.60
2019-02-19T21:35:12.720Z,6.60
2019-02-19T21:37:41.090Z,6.60
2019-02-19T21:40:13.714Z,6.50
2019-02-19T21:42:42.101Z,6.50
2019-02-19T21:45:11.943Z,6.50
2019-02-19T21:47:40.631Z,6.50
2019-02-19T21:50:11.383Z,6.40
2019-02-19T21:52:40.817Z,6.40
2019-02-19T21:55:10.681Z,6.40
2019-02-19T21:57:39.022Z,6.40
2019-02-19T22:00:14.082Z,6.40
2019-02-19T22:02:42.598Z,6.40
2019-02-19T22:05:10.837Z,6.30
2019-02-19T22:07:39.423Z,6.30
2019-02-19T22:10:10.671Z,6.20
2019-02-19T22:12:38.944Z,6.20
2019-02-19T22:15:14.549Z,6.10
2019-02-19T22:17:42.821Z,6.10
2019-02-19T22:20:37.493Z,6.10
2019-02-19T22:23:06.120Z,6.00
2019-02-19T22:25:34.650Z,6.00
2019-02-19T22:28:02.914Z,6.00
2019-02-19T22:30:31.210Z,5.90
2019-02-19T22:32:59.481Z,5.90
2019-02-19T22:35:27.724Z,5.80
2019-02-19T22:37:55.990Z,5.80
2019-02-19T22:40:24.229Z,5.80
2019-02-19T22:42:52.501Z,5.70
2019-02-19T22:45:20.746Z,5.70
2019-02-19T22:47:53.510Z,5.60
2019-02-19T22:50:18.981Z,5.60
2019-02-19T22:52:47.255Z,5.60
2019-02-19T22:55:17.140Z,5.60
2019-02-19T22:57:45.405Z,5.60
2019-02-19T23:00:40.742Z,5.60
2019-02-19T23:03:09.010Z,5.50
2019-02-19T23:05:37.251Z,5.50
2019-02-19T23:08:06.042Z,5.50
2019-02-19T23:10:34.286Z,5.50
2019-02-19T23:13:02.607Z,5.50
2019-02-19T23:15:31.170Z,5.50
2019-02-19T23:17:59.473Z,5.50
2019-02-19T23:20:27.715Z,5.40
2019-02-19T23:22:56.313Z,5.40
2019-02-19T23:25:24.561Z,5.30
2019-02-19T23:27:52.830Z,5.30
2019-02-19T23:30:21.182Z,5.30
2019-02-19T23:32:49.436Z,5.20
2019-02-19T23:35:37.613Z,5.20
2019-02-19T23:38:06.012Z,5.20
2019-02-19T23:40:34.523Z,5.20
2019-02-19T23:43:02.800Z,5.20
2019-02-19T23:45:31.385Z,5.10
2019-02-19T23:47:59.956Z,5.10
2019-02-19T23:50:28.203Z,5.10
2019-02-19T23:52:56.473Z,5.10
2019-02-19T23:55:24.739Z,5.10
2019-02-19T23:57:53.007Z,5.10
